createdAt,value
2023-03-11T00:04:28.671Z,96298.83
2023-03-11T00:09:30.926Z,96298.28
2023-03-11T00:14:37.939Z,96289.17
2023-03-11T00:19:39.650Z,96288.35
2023-03-11T00:24:41.293Z,96283.11
2023-03-11T00:29:43.097Z,96276.45
2023-03-11T00:34:44.823Z,96278.22
2023-03-11T00:39:46.711Z,96275.95
2023-03-11T00:44:49.355Z,96277.56
2023-03-11T00:49:56.841Z,96282.31
2023-03-11T00:55:22.716Z,96287.46
2023-03-11T01:00:26.278Z,96295.82
2023-03-11T01:05:30.852Z,96302.67
2023-03-11T01:10:34.523Z,96304.65
2023-03-11T01:15:37.409Z,96298.15
2023-03-11T01:20:39.185Z,96300.99
2023-03-11T01:25:40.997Z,96300.31
2023-03-11T01:30:43.029Z,96292.15
2023-03-11T01:35:46.111Z,96286.89
2023-03-11T01:40:50.387Z,96279.27
2023-03-11T01:45:53.396Z,96280.52
2023-03-11T01:50:58.915Z,96288.30
2023-03-11T01:56:03.534Z,96292.70
2023-03-11T02:01:06.909Z,96288.14
2023-03-11T02:06:15.937Z,96286.19
2023-03-11T02:11:27.358Z,96289.83
2023-03-11T02:16:29.647Z,96282.92
2023-03-11T02:21:33.884Z,96283.41
2023-03-11T02:26:56.466Z,96286.50
2023-03-11T02:32:01.603Z,96295.30
2023-03-11T02:37:06.569Z,96296.65
2023-03-11T02:42:14.228Z,96310.48
2023-03-11T02:47:17.264Z,96308.67
2023-03-11T02:52:20.284Z,96311.73
2023-03-11T02:57:22.107Z,96310.87
2023-03-11T03:02:24.017Z,96305.85
2023-03-11T03:07:26.304Z,96307.57
2023-03-11T03:12:29.947Z,96306.38
2023-03-11T03:17:31.834Z,96305.73
2023-03-11T03:22:33.796Z,96298.34
2023-03-11T03:27:36.122Z,96304.89
2023-03-11T03:32:40.157Z,96310.34
2023-03-11T03:37:43.741Z,96318.77
2023-03-11T03:42:45.546Z,96322.70
2023-03-11T03:47:47.511Z,96329.69
2023-03-11T03:52:49.312Z,96333.20
2023-03-11T03:57:51.300Z,96338.98
2023-03-11T04:02:53.872Z,96342.48
2023-03-11T04:08:04.003Z,96335.39
2023-03-11T04:13:06.135Z,96330.00
2023-03-11T04:18:08.120Z,96328.77
2023-03-11T04:23:10.076Z,96328.33
2023-03-11T04:28:12.051Z,96326.42
2023-03-11T04:33:13.885Z,96329.88
2023-03-11T04:38:16.030Z,96322.58
2023-03-11T04:43:17.870Z,96327.40
2023-03-11T04:48:20.402Z,96329.55
2023-03-11T04:53:23.849Z,96336.23
2023-03-11T04:58:25.676Z,96346.61
2023-03-11T05:03:27.474Z,96369.05
2023-03-11T05:08:29.468Z,96393.99
2023-03-11T05:13:31.248Z,96402.44
2023-03-11T05:18:33.253Z,96411.89
2023-03-11T05:23:35.602Z,96419.69
2023-03-11T05:28:38.884Z,96421.10
2023-03-11T05:33:41.126Z,96428.30
2023-03-11T05:38:45.755Z,96441.07
2023-03-11T05:43:48.862Z,96457.64
2023-03-11T05:48:50.973Z,96463.40
2023-03-11T05:53:53.159Z,96478.44
2023-03-11T05:59:01.300Z,96489.67
2023-03-11T06:04:04.709Z,96504.02
2023-03-11T06:09:07.417Z,96516.64
2023-03-11T06:14:14.092Z,96523.52
2023-03-11T06:19:16.547Z,96538.77
2023-03-11T06:24:21.974Z,96545.73
2023-03-11T06:29:26.522Z,96557.17
2023-03-11T06:34:28.753Z,96561.89
2023-03-11T06:39:30.603Z,96567.61
2023-03-11T06:44:32.368Z,96570.53
2023-03-11T06:49:34.395Z,96573.00
2023-03-11T06:54:36.552Z,96580.36
2023-03-11T06:59:38.941Z,96588.95
2023-03-11T07:04:41.667Z,96595.70
2023-03-11T07:09:43.540Z,96606.70
2023-03-11T07:14:47.863Z,96613.23
2023-03-11T07:19:50.805Z,96615.91
2023-03-11T07:24:52.633Z,96623.49
2023-03-11T07:29:54.636Z,96624.80
2023-03-11T07:34:56.394Z,96638.69
2023-03-11T07:39:58.093Z,96643.33
2023-03-11T07:44:59.796Z,96650.79
2023-03-11T07:50:01.443Z,96659.20
2023-03-11T07:55:03.455Z,96668.45
2023-03-11T08:00:05.714Z,96677.03
2023-03-11T08:05:13.667Z,96685.01
2023-03-11T08:10:15.340Z,96682.09
2023-03-11T08:15:17.091Z,96700.77
2023-03-11T08:20:18.935Z,96704.65
2023-03-11T08:25:20.772Z,96714.19
2023-03-11T08:30:23.027Z,96717.67
2023-03-11T08:35:26.192Z,96727.61
2023-03-11T08:40:28.141Z,96738.04
2023-03-11T08:45:30.163Z,96746.90
2023-03-11T08:50:34.946Z,96753.16
2023-03-11T08:55:40.407Z,96760.63
2023-03-11T09:00:42.230Z,96765.01
2023-03-11T09:05:44.330Z,96775.00
2023-03-11T09:10:46.001Z,96781.73
2023-03-11T09:15:49.769Z,96794.48
2023-03-11T09:20:51.506Z,96805.42
2023-03-11T09:25:53.270Z,96811.20
2023-03-11T09:30:54.981Z,96819.02
2023-03-11T09:35:59.137Z,96818.40
2023-03-11T09:41:19.212Z,96829.46
2023-03-11T09:46:51.968Z,96841.63
2023-03-11T09:52:11.875Z,96852.95
2023-03-11T09:57:19.848Z,96872.08
2023-03-11T10:02:27.753Z,96885.68
2023-03-11T10:07:47.604Z,96887.35
2023-03-11T10:12:54.907Z,96894.41
2023-03-11T10:18:23.001Z,96907.61
2023-03-11T10:23:37.432Z,96919.42
2023-03-11T10:28:39.036Z,96932.59
2023-03-11T10:33:47.848Z,96942.63
2023-03-11T10:38:52.782Z,96953.34
2023-03-11T10:44:05.958Z,96974.46
2023-03-11T10:49:15.972Z,96996.81
2023-03-11T10:54:26.639Z,97014.54
2023-03-11T10:59:47.077Z,97033.48
2023-03-11T11:05:03.079Z,97041.76
2023-03-11T11:10:22.867Z,97057.67
2023-03-11T11:15:29.651Z,97066.87
2023-03-11T11:20:32.490Z,97071.54
2023-03-11T11:25:37.178Z,97089.31
2023-03-11T11:30:53.734Z,97104.04
2023-03-11T11:35:59.105Z,97115.51
2023-03-11T11:41:05.114Z,97134.96
2023-03-11T11:46:15.963Z,97153.06
2023-03-11T11:51:28.107Z,97170.48
2023-03-11T11:56:29.903Z,97177.58
2023-03-11T12:02:09.117Z,97187.48
2023-03-11T12:07:24.798Z,97192.56
2023-03-11T12:12:52.829Z,97204.39
2023-03-11T12:18:02.601Z,97223.45
2023-03-11T12:23:42.513Z,97238.21
2023-03-11T12:29:01.206Z,97247.16
2023-03-11T12:34:05.306Z,97253.21
2023-03-11T12:39:19.592Z,97263.74
2023-03-11T12:44:29.717Z,97275.71
2023-03-11T12:49:34.754Z,97285.86
2023-03-11T12:54:39.619Z,97296.55
2023-03-11T13:00:07.789Z,97305.20
2023-03-11T13:05:23.848Z,97318.61
2023-03-11T13:10:45.500Z,97342.76
2023-03-11T13:15:47.477Z,97360.69
2023-03-11T13:20:56.195Z,97373.32
2023-03-11T13:26:04.575Z,97381.23
2023-03-11T13:31:40.442Z,97394.93
2023-03-11T13:37:00.938Z,97410.23
2023-03-11T13:42:08.859Z,97420.29
2023-03-11T13:47:15.377Z,97432.70
2023-03-11T13:52:26.150Z,97444.00
2023-03-11T13:57:36.540Z,97448.37
2023-03-11T14:02:38.435Z,97465.90
2023-03-11T14:07:40.131Z,97480.95
2023-03-11T14:12:42.264Z,97491.41
2023-03-11T14:17:45.305Z,97499.69
2023-03-11T14:22:54.307Z,97507.21
2023-03-11T14:27:59.190Z,97510.17
2023-03-11T14:33:06.348Z,97519.49
2023-03-11T14:38:21.614Z,97528.00
2023-03-11T14:43:23.690Z,97546.80
2023-03-11T14:48:36.187Z,97557.34
2023-03-11T14:54:07.001Z,97575.08
2023-03-11T14:59:26.907Z,97588.24
2023-03-11T15:04:38.150Z,97593.40
2023-03-11T15:09:41.810Z,97593.55
2023-03-11T15:14:51.759Z,97607.01
2023-03-11T15:19:53.735Z,97618.58
2023-03-11T15:24:58.685Z,97626.59
2023-03-11T15:30:02.384Z,97641.73
2023-03-11T15:35:11.065Z,97652.76
2023-03-11T15:40:44.016Z,97658.54
2023-03-11T15:45:46.799Z,97665.11
2023-03-11T15:50:55.107Z,97680.45
2023-03-11T15:56:13.381Z,97686.96
2023-03-11T16:01:15.154Z,97706.86
2023-03-11T16:06:16.792Z,97710.73
2023-03-11T16:11:18.833Z,97722.09
2023-03-11T16:16:20.694Z,97726.83
2023-03-11T16:21:27.536Z,97742.77
2023-03-11T16:26:30.320Z,97754.84
2023-03-11T16:31:32.140Z,97762.33
2023-03-11T16:36:33.913Z,97777.20
2023-03-11T16:41:44.316Z,97787.05
2023-03-11T16:46:46.000Z,97801.80
2023-03-11T16:51:47.769Z,97813.07
2023-03-11T16:56:49.448Z,97829.77
2023-03-11T17:01:51.249Z,97847.32
2023-03-11T17:06:53.243Z,97851.95
2023-03-11T17:11:54.921Z,97865.52
2023-03-11T17:16:56.637Z,97877.08
2023-03-11T17:21:58.465Z,97891.21
2023-03-11T17:27:00.233Z,97906.46
2023-03-11T17:32:03.160Z,97912.82
2023-03-11T17:37:04.889Z,97914.36
2023-03-11T17:42:06.617Z,97929.98
2023-03-11T17:47:08.351Z,97938.90
2023-03-11T17:52:10.016Z,97945.77
2023-03-11T17:57:11.811Z,97952.73
2023-03-11T18:02:14.340Z,97961.56
2023-03-11T18:07:16.174Z,97983.58
2023-03-11T18:12:18.156Z,97991.04
2023-03-11T18:17:21.102Z,98001.17
2023-03-11T18:22:22.762Z,98013.16
2023-03-11T18:27:24.743Z,98022.73
2023-03-11T18:32:26.484Z,98031.08
2023-03-11T18:37:28.372Z,98039.20
2023-03-11T18:42:30.179Z,98039.68
2023-03-11T18:47:35.490Z,98045.31
2023-03-11T18:52:37.311Z,98051.43
2023-03-11T18:57:41.693Z,98059.94
2023-03-11T19:02:43.506Z,98061.84
2023-03-11T19:07:45.211Z,98076.17
2023-03-11T19:12:47.112Z,98083.05
2023-03-11T19:18:00.657Z,98094.33
2023-03-11T19:23:08.279Z,98097.83
2023-03-11T19:28:09.960Z,98104.59
2023-03-11T19:33:11.590Z,98112.18
2023-03-11T19:38:13.269Z,98116.77
2023-03-11T19:43:15.005Z,98117.41
2023-03-11T19:48:17.323Z,98117.91
2023-03-11T19:53:20.799Z,98121.55
2023-03-11T19:58:24.569Z,98131.18
2023-03-11T20:03:26.895Z,98132.20
2023-03-11T20:08:30.277Z,98134.27
2023-03-11T20:13:34.510Z,98141.39
2023-03-11T20:18:36.467Z,98148.07
2023-03-11T20:23:38.809Z,98147.67
2023-03-11T20:28:41.241Z,98146.93
2023-03-11T20:33:43.191Z,98153.39
2023-03-11T20:38:45.017Z,98162.84
2023-03-11T20:43:46.835Z,98166.91
2023-03-11T20:48:48.553Z,98170.05
2023-03-11T20:53:50.571Z,98177.85
2023-03-11T20:58:55.818Z,98185.52
2023-03-11T21:04:00.446Z,98186.10
2023-03-11T21:09:07.095Z,98182.48
2023-03-11T21:14:09.773Z,98192.67
2023-03-11T21:19:13.560Z,98196.89
2023-03-11T21:24:15.571Z,98199.30
2023-03-11T21:29:17.330Z,98207.33
2023-03-11T21:34:19.117Z,98211.45
2023-03-11T21:39:21.832Z,98213.80
2023-03-11T21:44:23.603Z,98217.65
2023-03-11T21:49:25.739Z,98215.60
2023-03-11T21:54:27.736Z,98224.30
2023-03-11T21:59:30.401Z,98235.52
2023-03-11T22:04:32.243Z,98240.15
2023-03-11T22:09:35.493Z,98246.02
2023-03-11T22:14:45.021Z,98251.73
2023-03-11T22:19:46.941Z,98254.69
2023-03-11T22:24:48.745Z,98256.63
2023-03-11T22:29:50.839Z,98253.88
2023-03-11T22:34:52.538Z,98257.08
2023-03-11T22:39:54.212Z,98257.14
2023-03-11T22:44:56.617Z,98259.49
2023-03-11T22:50:05.205Z,98263.12
2023-03-11T22:55:26.965Z,98263.13
2023-03-11T23:00:28.659Z,98260.08
2023-03-11T23:05:30.561Z,98262.35
2023-03-11T23:10:32.310Z,98268.70
2023-03-11T23:15:33.981Z,98270.91
2023-03-11T23:20:37.844Z,98263.66
2023-03-11T23:25:41.201Z,98263.48
2023-03-11T23:30:42.967Z,98269.48
2023-03-11T23:35:44.704Z,98273.47
2023-03-11T23:40:46.453Z,98281.48
2023-03-11T23:45:48.676Z,98293.67
2023-03-11T23:50:51.247Z,98301.00
2023-03-11T23:55:53.827Z,98298.17
